sensor_id;sensor_type;location;lat;lon;timestamp;temperature;humidity
36660;DHT22;22654;51.054;3.654;2023-03-31T00:01:48;12.20;99.90
36660;DHT22;22654;51.054;3.654;2023-03-31T00:04:14;12.20;99.90
36660;DHT22;22654;51.054;3.654;2023-03-31T00:06:40;12.20;99.90
36660;DHT22;22654;51.054;3.654;2023-03-31T00:09:11;12.30;99.90
36660;DHT22;22654;51.054;3.654;2023-03-31T00:11:37;12.40;99.90
36660;DHT22;22654;51.054;3.654;2023-03-31T00:14:09;12.40;99.90
36660;DHT22;22654;51.054;3.654;2023-03-31T00:16:38;12.40;99.90
36660;DHT22;22654;51.054;3.654;2023-03-31T00:19:04;12.50;99.90
36660;DHT22;22654;51.054;3.654;2023-03-31T00:21:30;12.40;99.90
36660;DHT22;22654;51.054;3.654;2023-03-31T00:24:03;12.40;99.90
36660;DHT22;22654;51.054;3.654;2023-03-31T00:26:30;12.40;99.90
36660;DHT22;22654;51.054;3.654;2023-03-31T00:28:56;12.30;99.90
36660;DHT22;22654;51.054;3.654;2023-03-31T00:31:22;12.30;99.90
36660;DHT22;22654;51.054;3.654;2023-03-31T00:33:48;12.20;99.90
36660;DHT22;22654;51.054;3.654;2023-03-31T00:36:14;12.10;99.90
36660;DHT22;22654;51.054;3.654;2023-03-31T00:38:48;12.10;99.90
36660;DHT22;22654;51.054;3.654;2023-03-31T00:41:14;12.00;99.90
36660;DHT22;22654;51.054;3.654;2023-03-31T00:43:40;12.00;99.90
36660;DHT22;22654;51.054;3.654;2023-03-31T00:46:12;12.10;99.90
36660;DHT22;22654;51.054;3.654;2023-03-31T00:48:41;12.00;99.90
36660;DHT22;22654;51.054;3.654;2023-03-31T00:51:11;11.90;99.90
36660;DHT22;22654;51.054;3.654;2023-03-31T00:53:36;11.90;99.90
36660;DHT22;22654;51.054;3.654;2023-03-31T00:56:08;12.00;99.90
36660;DHT22;22654;51.054;3.654;2023-03-31T00:58:41;11.90;99.90
36660;DHT22;22654;51.054;3.654;2023-03-31T01:01:14;11.80;99.90
36660;DHT22;22654;51.054;3.654;2023-03-31T01:03:41;11.80;99.90
36660;DHT22;22654;51.054;3.654;2023-03-31T01:06:12;11.80;99.90
36660;DHT22;22654;51.054;3.654;2023-03-31T01:08:39;11.90;99.90
36660;DHT22;22654;51.054;3.654;2023-03-31T01:11:06;11.90;99.90
36660;DHT22;22654;51.054;3.654;2023-03-31T01:13:35;11.80;99.90
36660;DHT22;22654;51.054;3.654;2023-03-31T01:16:01;11.80;99.90
36660;DHT22;22654;51.054;3.654;2023-03-31T01:18:27;11.80;99.90
36660;DHT22;22654;51.054;3.654;2023-03-31T01:39:59;11.80;99.90
36660;DHT22;22654;51.054;3.654;2023-03-31T01:42:34;11.70;99.90
36660;DHT22;22654;51.054;3.654;2023-03-31T01:47:32;11.80;99.90
36660;DHT22;22654;51.054;3.654;2023-03-31T01:50:09;11.70;99.90
36660;DHT22;22654;51.054;3.654;2023-03-31T01:55:24;11.50;99.90
36660;DHT22;22654;51.054;3.654;2023-03-31T01:57:59;11.60;99.90
36660;DHT22;22654;51.054;3.654;2023-03-31T02:00:31;11.60;99.90
36660;DHT22;22654;51.054;3.654;2023-03-31T02:03:01;11.60;99.90
36660;DHT22;22654;51.054;3.654;2023-03-31T02:05:31;11.60;99.90
36660;DHT22;22654;51.054;3.654;2023-03-31T02:08:03;11.80;99.90
36660;DHT22;22654;51.054;3.654;2023-03-31T02:10:30;11.70;99.90
36660;DHT22;22654;51.054;3.654;2023-03-31T02:12:58;11.60;99.90
36660;DHT22;22654;51.054;3.654;2023-03-31T02:15:25;11.60;99.90
36660;DHT22;22654;51.054;3.654;2023-03-31T02:17:53;11.60;99.90
36660;DHT22;22654;51.054;3.654;2023-03-31T02:20:20;11.50;99.90
36660;DHT22;22654;51.054;3.654;2023-03-31T02:22:51;11.50;99.90
36660;DHT22;22654;51.054;3.654;2023-03-31T02:25:22;11.50;99.90
36660;DHT22;22654;51.054;3.654;2023-03-31T02:27:55;11.50;99.90
36660;DHT22;22654;51.054;3.654;2023-03-31T02:30:23;11.50;99.90
36660;DHT22;22654;51.054;3.654;2023-03-31T02:32:50;11.40;99.90
36660;DHT22;22654;51.054;3.654;2023-03-31T02:35:16;11.50;99.90
36660;DHT22;22654;51.054;3.654;2023-03-31T02:37:43;11.60;99.90
36660;DHT22;22654;51.054;3.654;2023-03-31T02:40:15;11.50;99.90
36660;DHT22;22654;51.054;3.654;2023-03-31T02:42:41;11.50;99.90
36660;DHT22;22654;51.054;3.654;2023-03-31T02:47:52;11.50;99.90
36660;DHT22;22654;51.054;3.654;2023-03-31T02:50:21;11.40;99.90
36660;DHT22;22654;51.054;3.654;2023-03-31T02:52:56;11.50;99.90
36660;DHT22;22654;51.054;3.654;2023-03-31T03:00:30;11.50;99.90
36660;DHT22;22654;51.054;3.654;2023-03-31T03:16:43;11.30;99.90
36660;DHT22;22654;51.054;3.654;2023-03-31T03:19:16;11.20;99.90
36660;DHT22;22654;51.054;3.654;2023-03-31T03:21:43;11.20;99.90
36660;DHT22;22654;51.054;3.654;2023-03-31T03:24:10;11.10;99.90
36660;DHT22;22654;51.054;3.654;2023-03-31T03:26:36;11.00;99.90
36660;DHT22;22654;51.054;3.654;2023-03-31T03:29:01;11.00;99.90
36660;DHT22;22654;51.054;3.654;2023-03-31T03:31:27;11.00;99.90
36660;DHT22;22654;51.054;3.654;2023-03-31T03:34:00;11.00;99.90
36660;DHT22;22654;51.054;3.654;2023-03-31T03:36:26;11.10;99.90
36660;DHT22;22654;51.054;3.654;2023-03-31T03:38:51;11.10;99.90
36660;DHT22;22654;51.054;3.654;2023-03-31T03:41:17;11.00;99.90
36660;DHT22;22654;51.054;3.654;2023-03-31T03:43:43;11.00;99.90
36660;DHT22;22654;51.054;3.654;2023-03-31T03:46:09;11.00;99.90
36660;DHT22;22654;51.054;3.654;2023-03-31T03:48:38;10.90;99.90
36660;DHT22;22654;51.054;3.654;2023-03-31T03:51:05;11.00;99.90
36660;DHT22;22654;51.054;3.654;2023-03-31T03:53:31;10.80;99.90
36660;DHT22;22654;51.054;3.654;2023-03-31T03:55:57;10.80;99.90
36660;DHT22;22654;51.054;3.654;2023-03-31T03:58:23;10.90;99.90
36660;DHT22;22654;51.054;3.654;2023-03-31T04:00:49;10.80;99.90
36660;DHT22;22654;51.054;3.654;2023-03-31T04:03:15;11.00;99.90
36660;DHT22;22654;51.054;3.654;2023-03-31T04:05:41;10.80;99.90
36660;DHT22;22654;51.054;3.654;2023-03-31T04:08:09;10.70;99.90
36660;DHT22;22654;51.054;3.654;2023-03-31T04:10:35;10.80;99.90
36660;DHT22;22654;51.054;3.654;2023-03-31T04:13:01;10.80;99.90
36660;DHT22;22654;51.054;3.654;2023-03-31T04:15:30;10.80;99.90
36660;DHT22;22654;51.054;3.654;2023-03-31T04:17:55;10.70;99.90
36660;DHT22;22654;51.054;3.654;2023-03-31T04:20:22;10.80;99.90
36660;DHT22;22654;51.054;3.654;2023-03-31T04:22:52;10.70;99.90
36660;DHT22;22654;51.054;3.654;2023-03-31T04:25:19;10.70;99.90
36660;DHT22;22654;51.054;3.654;2023-03-31T04:27:47;10.60;99.90
36660;DHT22;22654;51.054;3.654;2023-03-31T04:30:23;10.60;99.90
36660;DHT22;22654;51.054;3.654;2023-03-31T04:32:50;10.50;99.90
36660;DHT22;22654;51.054;3.654;2023-03-31T04:35:18;10.60;99.90
36660;DHT22;22654;51.054;3.654;2023-03-31T04:37:46;10.50;99.90
36660;DHT22;22654;51.054;3.654;2023-03-31T04:40:12;10.60;99.90
36660;DHT22;22654;51.054;3.654;2023-03-31T04:42:38;10.70;99.90
36660;DHT22;22654;51.054;3.654;2023-03-31T04:45:03;10.70;99.90
36660;DHT22;22654;51.054;3.654;2023-03-31T04:47:29;10.70;99.90
36660;DHT22;22654;51.054;3.654;2023-03-31T04:49:55;10.60;99.90
36660;DHT22;22654;51.054;3.654;2023-03-31T04:52:21;10.60;99.90
36660;DHT22;22654;51.054;3.654;2023-03-31T04:54:47;10.60;99.90
36660;DHT22;22654;51.054;3.654;2023-03-31T04:57:12;10.60;99.90
36660;DHT22;22654;51.054;3.654;2023-03-31T04:59:38;10.70;99.90
36660;DHT22;22654;51.054;3.654;2023-03-31T05:02:04;10.60;99.90
36660;DHT22;22654;51.054;3.654;2023-03-31T05:04:30;10.60;99.90
36660;DHT22;22654;51.054;3.654;2023-03-31T05:06:55;10.60;99.90
36660;DHT22;22654;51.054;3.654;2023-03-31T05:09:21;10.70;99.90
36660;DHT22;22654;51.054;3.654;2023-03-31T05:11:47;10.80;99.90
36660;DHT22;22654;51.054;3.654;2023-03-31T05:14:13;10.90;99.90
36660;DHT22;22654;51.054;3.654;2023-03-31T05:16:39;10.90;99.90
36660;DHT22;22654;51.054;3.654;2023-03-31T05:19:06;10.70;99.90
36660;DHT22;22654;51.054;3.654;2023-03-31T05:21:32;10.90;99.90
36660;DHT22;22654;51.054;3.654;2023-03-31T05:23:57;10.90;99.90
36660;DHT22;22654;51.054;3.654;2023-03-31T05:26:23;11.00;99.90
36660;DHT22;22654;51.054;3.654;2023-03-31T05:28:50;11.00;99.90
36660;DHT22;22654;51.054;3.654;2023-03-31T05:31:16;11.10;99.90
36660;DHT22;22654;51.054;3.654;2023-03-31T05:33:42;11.10;99.90
36660;DHT22;22654;51.054;3.654;2023-03-31T05:36:09;11.10;99.90
36660;DHT22;22654;51.054;3.654;2023-03-31T05:38:36;11.10;99.90
36660;DHT22;22654;51.054;3.654;2023-03-31T05:41:02;11.20;99.90
36660;DHT22;22654;51.054;3.654;2023-03-31T05:43:28;11.20;99.90
36660;DHT22;22654;51.054;3.654;2023-03-31T05:45:53;11.30;99.90
36660;DHT22;22654;51.054;3.654;2023-03-31T05:48:19;11.30;99.90
36660;DHT22;22654;51.054;3.654;2023-03-31T05:50:46;11.30;99.90
36660;DHT22;22654;51.054;3.654;2023-03-31T05:53:12;11.40;99.90
36660;DHT22;22654;51.054;3.654;2023-03-31T05:55:38;11.40;99.90
36660;DHT22;22654;51.054;3.654;2023-03-31T05:58:04;11.40;99.90
36660;DHT22;22654;51.054;3.654;2023-03-31T06:00:34;11.50;99.90
36660;DHT22;22654;51.054;3.654;2023-03-31T06:03:00;11.50;99.90
36660;DHT22;22654;51.054;3.654;2023-03-31T06:05:26;11.60;99.90
36660;DHT22;22654;51.054;3.654;2023-03-31T06:07:52;11.60;99.90
36660;DHT22;22654;51.054;3.654;2023-03-31T06:10:18;11.70;99.90
36660;DHT22;22654;51.054;3.654;2023-03-31T06:12:44;11.70;99.90
36660;DHT22;22654;51.054;3.654;2023-03-31T06:15:10;11.70;99.90
36660;DHT22;22654;51.054;3.654;2023-03-31T06:17:36;11.70;99.90
36660;DHT22;22654;51.054;3.654;2023-03-31T06:20:01;11.80;99.90
36660;DHT22;22654;51.054;3.654;2023-03-31T06:22:29;11.90;99.90
36660;DHT22;22654;51.054;3.654;2023-03-31T06:24:54;11.90;99.90
36660;DHT22;22654;51.054;3.654;2023-03-31T06:27:21;12.00;99.90
36660;DHT22;22654;51.054;3.654;2023-03-31T06:29:46;12.10;99.90
36660;DHT22;22654;51.054;3.654;2023-03-31T06:32:14;12.10;99.90
36660;DHT22;22654;51.054;3.654;2023-03-31T06:34:40;12.20;99.90
36660;DHT22;22654;51.054;3.654;2023-03-31T06:37:06;12.20;99.90
36660;DHT22;22654;51.054;3.654;2023-03-31T06:39:32;12.10;99.90
36660;DHT22;22654;51.054;3.654;2023-03-31T06:41:57;12.20;99.90
36660;DHT22;22654;51.054;3.654;2023-03-31T06:44:26;12.10;99.90
36660;DHT22;22654;51.054;3.654;2023-03-31T06:46:52;12.10;99.90
36660;DHT22;22654;51.054;3.654;2023-03-31T06:49:18;12.10;99.90
36660;DHT22;22654;51.054;3.654;2023-03-31T06:51:43;12.10;99.90
36660;DHT22;22654;51.054;3.654;2023-03-31T06:54:09;12.30;99.90
36660;DHT22;22654;51.054;3.654;2023-03-31T06:56:35;12.40;99.90
36660;DHT22;22654;51.054;3.654;2023-03-31T06:59:00;12.40;99.90
36660;DHT22;22654;51.054;3.654;2023-03-31T07:01:26;12.50;99.90
36660;DHT22;22654;51.054;3.654;2023-03-31T07:03:52;12.60;99.90
36660;DHT22;22654;51.054;3.654;2023-03-31T07:06:18;12.50;99.90
36660;DHT22;22654;51.054;3.654;2023-03-31T07:08:43;12.50;99.90
36660;DHT22;22654;51.054;3.654;2023-03-31T07:11:10;12.60;99.90
36660;DHT22;22654;51.054;3.654;2023-03-31T07:13:37;12.70;99.90
36660;DHT22;22654;51.054;3.654;2023-03-31T07:16:05;12.80;99.90
36660;DHT22;22654;51.054;3.654;2023-03-31T07:18:32;12.80;99.90
36660;DHT22;22654;51.054;3.654;2023-03-31T07:20:59;12.80;99.90
36660;DHT22;22654;51.054;3.654;2023-03-31T07:23:25;12.90;99.90
36660;DHT22;22654;51.054;3.654;2023-03-31T07:25:51;12.90;99.90
36660;DHT22;22654;51.054;3.654;2023-03-31T07:28:16;12.80;99.90
36660;DHT22;22654;51.054;3.654;2023-03-31T07:30:42;12.80;99.90
36660;DHT22;22654;51.054;3.654;2023-03-31T07:33:10;12.90;99.90
36660;DHT22;22654;51.054;3.654;2023-03-31T07:35:37;13.00;99.90
36660;DHT22;22654;51.054;3.654;2023-03-31T07:38:02;13.00;99.90
36660;DHT22;22654;51.054;3.654;2023-03-31T07:40:28;12.90;99.90
36660;DHT22;22654;51.054;3.654;2023-03-31T07:42:55;12.90;99.90
36660;DHT22;22654;51.054;3.654;2023-03-31T07:45:22;12.70;99.90
36660;DHT22;22654;51.054;3.654;2023-03-31T07:47:48;12.60;99.90
36660;DHT22;22654;51.054;3.654;2023-03-31T07:50:15;12.70;99.90
36660;DHT22;22654;51.054;3.654;2023-03-31T07:52:41;12.70;99.90
36660;DHT22;22654;51.054;3.654;2023-03-31T07:55:07;12.80;99.90
36660;DHT22;22654;51.054;3.654;2023-03-31T07:57:33;12.90;99.90
36660;DHT22;22654;51.054;3.654;2023-03-31T07:59:59;12.80;99.90
36660;DHT22;22654;51.054;3.654;2023-03-31T08:02:24;13.00;99.90
36660;DHT22;22654;51.054;3.654;2023-03-31T08:04:50;13.10;99.90
36660;DHT22;22654;51.054;3.654;2023-03-31T08:07:16;13.30;99.90
36660;DHT22;22654;51.054;3.654;2023-03-31T08:09:42;13.40;99.90
36660;DHT22;22654;51.054;3.654;2023-03-31T08:12:08;13.50;99.90
36660;DHT22;22654;51.054;3.654;2023-03-31T08:14:34;13.60;99.90
36660;DHT22;22654;51.054;3.654;2023-03-31T08:17:02;13.60;99.90
36660;DHT22;22654;51.054;3.654;2023-03-31T08:19:28;13.70;99.90
36660;DHT22;22654;51.054;3.654;2023-03-31T08:21:54;13.80;99.90
36660;DHT22;22654;51.054;3.654;2023-03-31T08:24:20;13.80;99.90
36660;DHT22;22654;51.054;3.654;2023-03-31T08:26:45;13.60;99.90
36660;DHT22;22654;51.054;3.654;2023-03-31T08:29:11;13.60;99.90
36660;DHT22;22654;51.054;3.654;2023-03-31T08:31:37;13.70;99.90
36660;DHT22;22654;51.054;3.654;2023-03-31T08:34:06;13.40;99.90
36660;DHT22;22654;51.054;3.654;2023-03-31T08:36:32;13.40;99.90
36660;DHT22;22654;51.054;3.654;2023-03-31T08:38:58;13.30;99.90
36660;DHT22;22654;51.054;3.654;2023-03-31T08:44:08;13.20;99.90
36660;DHT22;22654;51.054;3.654;2023-03-31T08:46:35;13.30;99.90
36660;DHT22;22654;51.054;3.654;2023-03-31T08:49:02;13.50;99.90
36660;DHT22;22654;51.054;3.654;2023-03-31T08:54:02;13.50;99.90
36660;DHT22;22654;51.054;3.654;2023-03-31T08:56:30;13.60;99.90
36660;DHT22;22654;51.054;3.654;2023-03-31T08:58:58;13.80;99.90
36660;DHT22;22654;51.054;3.654;2023-03-31T09:09:24;13.70;99.90
36660;DHT22;22654;51.054;3.654;2023-03-31T09:11:54;13.70;99.90
36660;DHT22;22654;51.054;3.654;2023-03-31T09:14:32;13.70;99.90
36660;DHT22;22654;51.054;3.654;2023-03-31T09:17:06;13.60;99.90
36660;DHT22;22654;51.054;3.654;2023-03-31T09:19:48;13.30;99.90
36660;DHT22;22654;51.054;3.654;2023-03-31T09:22:17;13.40;99.90
36660;DHT22;22654;51.054;3.654;2023-03-31T09:24:49;13.30;99.90
36660;DHT22;22654;51.054;3.654;2023-03-31T09:27:17;13.20;99.90
36660;DHT22;22654;51.054;3.654;2023-03-31T09:29:45;13.00;99.90
36660;DHT22;22654;51.054;3.654;2023-03-31T09:32:14;12.90;99.90
36660;DHT22;22654;51.054;3.654;2023-03-31T09:34:40;12.80;99.90
36660;DHT22;22654;51.054;3.654;2023-03-31T09:37:08;12.80;99.90
36660;DHT22;22654;51.054;3.654;2023-03-31T09:39:34;12.90;99.90
36660;DHT22;22654;51.054;3.654;2023-03-31T09:42:00;13.10;99.90
36660;DHT22;22654;51.054;3.654;2023-03-31T09:44:27;13.60;99.90
36660;DHT22;22654;51.054;3.654;2023-03-31T09:46:57;13.70;99.90
36660;DHT22;22654;51.054;3.654;2023-03-31T09:49:31;13.90;99.90
36660;DHT22;22654;51.054;3.654;2023-03-31T09:52:05;14.00;99.90
36660;DHT22;22654;51.054;3.654;2023-03-31T09:54:45;14.10;99.90
36660;DHT22;22654;51.054;3.654;2023-03-31T09:57:14;14.10;99.90
36660;DHT22;22654;51.054;3.654;2023-03-31T09:59:40;14.20;99.90
36660;DHT22;22654;51.054;3.654;2023-03-31T10:02:28;14.30;99.90
36660;DHT22;22654;51.054;3.654;2023-03-31T10:04:59;14.20;99.90
36660;DHT22;22654;51.054;3.654;2023-03-31T10:07:25;14.00;99.90
36660;DHT22;22654;51.054;3.654;2023-03-31T10:09:51;13.70;99.90
36660;DHT22;22654;51.054;3.654;2023-03-31T10:12:19;13.50;99.90
36660;DHT22;22654;51.054;3.654;2023-03-31T10:14:49;13.40;99.90
36660;DHT22;22654;51.054;3.654;2023-03-31T10:17:20;13.40;99.90
36660;DHT22;22654;51.054;3.654;2023-03-31T10:19:47;13.30;99.90
36660;DHT22;22654;51.054;3.654;2023-03-31T10:22:15;13.30;99.90
36660;DHT22;22654;51.054;3.654;2023-03-31T10:24:42;13.30;99.90
36660;DHT22;22654;51.054;3.654;2023-03-31T10:27:15;13.40;99.90
36660;DHT22;22654;51.054;3.654;2023-03-31T10:29:43;13.50;99.90
36660;DHT22;22654;51.054;3.654;2023-03-31T10:32:11;13.60;99.90
36660;DHT22;22654;51.054;3.654;2023-03-31T10:34:41;13.90;99.90
36660;DHT22;22654;51.054;3.654;2023-03-31T10:37:10;14.10;99.90
36660;DHT22;22654;51.054;3.654;2023-03-31T10:39:38;14.10;99.90
36660;DHT22;22654;51.054;3.654;2023-03-31T10:42:05;14.00;99.90
36660;DHT22;22654;51.054;3.654;2023-03-31T10:44:36;13.90;99.90
36660;DHT22;22654;51.054;3.654;2023-03-31T10:47:08;13.60;99.90
36660;DHT22;22654;51.054;3.654;2023-03-31T10:49:42;13.50;99.90
36660;DHT22;22654;51.054;3.654;2023-03-31T10:52:14;13.60;99.90
36660;DHT22;22654;51.054;3.654;2023-03-31T10:54:48;13.70;99.90
36660;DHT22;22654;51.054;3.654;2023-03-31T10:57:14;13.80;99.90
36660;DHT22;22654;51.054;3.654;2023-03-31T10:59:44;14.00;99.90
36660;DHT22;22654;51.054;3.654;2023-03-31T11:05:05;14.50;99.90
36660;DHT22;22654;51.054;3.654;2023-03-31T11:12:30;15.10;99.90
36660;DHT22;22654;51.054;3.654;2023-03-31T11:20:33;14.50;99.90
36660;DHT22;22654;51.054;3.654;2023-03-31T11:25:37;14.20;99.90
36660;DHT22;22654;51.054;3.654;2023-03-31T11:34:02;14.30;99.90
36660;DHT22;22654;51.054;3.654;2023-03-31T11:41:29;14.90;99.90
36660;DHT22;22654;51.054;3.654;2023-03-31T11:43:59;14.70;99.90
36660;DHT22;22654;51.054;3.654;2023-03-31T11:49:04;14.20;99.90
36660;DHT22;22654;51.054;3.654;2023-03-31T11:51:34;14.00;99.90
36660;DHT22;22654;51.054;3.654;2023-03-31T11:54:03;13.80;99.90
36660;DHT22;22654;51.054;3.654;2023-03-31T11:56:37;13.70;99.90
36660;DHT22;22654;51.054;3.654;2023-03-31T11:59:04;13.60;99.90
36660;DHT22;22654;51.054;3.654;2023-03-31T12:01:41;13.50;99.90
36660;DHT22;22654;51.054;3.654;2023-03-31T12:04:19;13.50;99.90
36660;DHT22;22654;51.054;3.654;2023-03-31T12:06:48;13.70;99.90
36660;DHT22;22654;51.054;3.654;2023-03-31T12:09:22;13.80;99.90
36660;DHT22;22654;51.054;3.654;2023-03-31T12:12:04;13.70;99.90
36660;DHT22;22654;51.054;3.654;2023-03-31T12:17:21;13.50;99.90
36660;DHT22;22654;51.054;3.654;2023-03-31T12:19:55;13.60;99.90
36660;DHT22;22654;51.054;3.654;2023-03-31T12:22:28;13.50;99.90
36660;DHT22;22654;51.054;3.654;2023-03-31T12:24:58;13.50;99.90
36660;DHT22;22654;51.054;3.654;2023-03-31T12:29:55;13.30;99.90
36660;DHT22;22654;51.054;3.654;2023-03-31T12:32:23;13.40;99.90
36660;DHT22;22654;51.054;3.654;2023-03-31T12:35:43;13.40;99.90
36660;DHT22;22654;51.054;3.654;2023-03-31T12:40:14;13.60;99.90
36660;DHT22;22654;51.054;3.654;2023-03-31T12:43:02;13.70;99.90
36660;DHT22;22654;51.054;3.654;2023-03-31T12:45:40;13.80;99.90
36660;DHT22;22654;51.054;3.654;2023-03-31T12:51:00;14.00;99.90
36660;DHT22;22654;51.054;3.654;2023-03-31T12:56:26;13.90;99.90
36660;DHT22;22654;51.054;3.654;2023-03-31T12:58:51;13.80;99.90
36660;DHT22;22654;51.054;3.654;2023-03-31T13:01:20;13.90;99.90
36660;DHT22;22654;51.054;3.654;2023-03-31T13:14:03;13.60;99.90
36660;DHT22;22654;51.054;3.654;2023-03-31T13:16:30;13.40;99.90
36660;DHT22;22654;51.054;3.654;2023-03-31T13:18:57;13.40;99.90
36660;DHT22;22654;51.054;3.654;2023-03-31T13:21:23;13.30;99.90
36660;DHT22;22654;51.054;3.654;2023-03-31T13:23:52;13.30;99.90
36660;DHT22;22654;51.054;3.654;2023-03-31T13:26:38;13.10;99.90
36660;DHT22;22654;51.054;3.654;2023-03-31T13:34:23;13.10;99.90
36660;DHT22;22654;51.054;3.654;2023-03-31T13:42:24;13.00;99.90
36660;DHT22;22654;51.054;3.654;2023-03-31T13:55:22;12.90;99.90
36660;DHT22;22654;51.054;3.654;2023-03-31T14:08:41;12.50;99.90
36660;DHT22;22654;51.054;3.654;2023-03-31T14:11:17;12.50;99.90
36660;DHT22;22654;51.054;3.654;2023-03-31T14:13:43;12.60;99.90
36660;DHT22;22654;51.054;3.654;2023-03-31T14:16:09;12.70;99.90
36660;DHT22;22654;51.054;3.654;2023-03-31T14:18:36;12.70;99.90
36660;DHT22;22654;51.054;3.654;2023-03-31T14:23:56;12.80;99.90
36660;DHT22;22654;51.054;3.654;2023-03-31T14:30:05;12.80;99.90
36660;DHT22;22654;51.054;3.654;2023-03-31T14:32:31;12.90;99.90
36660;DHT22;22654;51.054;3.654;2023-03-31T14:37:29;12.90;99.90
36660;DHT22;22654;51.054;3.654;2023-03-31T14:39:55;12.90;99.90
36660;DHT22;22654;51.054;3.654;2023-03-31T14:44:57;12.90;99.90
36660;DHT22;22654;51.054;3.654;2023-03-31T14:47:24;13.00;99.90
36660;DHT22;22654;51.054;3.654;2023-03-31T14:52:27;12.90;99.90
36660;DHT22;22654;51.054;3.654;2023-03-31T14:54:53;12.90;99.90
36660;DHT22;22654;51.054;3.654;2023-03-31T14:57:21;13.00;99.90
36660;DHT22;22654;51.054;3.654;2023-03-31T14:59:50;12.90;99.90
36660;DHT22;22654;51.054;3.654;2023-03-31T15:02:19;12.90;99.90
36660;DHT22;22654;51.054;3.654;2023-03-31T15:04:48;12.60;99.90
36660;DHT22;22654;51.054;3.654;2023-03-31T15:07:15;12.50;99.90
36660;DHT22;22654;51.054;3.654;2023-03-31T15:09:43;12.40;99.90
36660;DHT22;22654;51.054;3.654;2023-03-31T15:12:14;12.40;99.90
36660;DHT22;22654;51.054;3.654;2023-03-31T15:14:49;12.30;99.90
36660;DHT22;22654;51.054;3.654;2023-03-31T15:17:19;12.30;99.90
36660;DHT22;22654;51.054;3.654;2023-03-31T15:19:50;12.30;99.90
36660;DHT22;22654;51.054;3.654;2023-03-31T15:22:16;12.20;99.90
36660;DHT22;22654;51.054;3.654;2023-03-31T15:24:46;12.20;99.90
36660;DHT22;22654;51.054;3.654;2023-03-31T15:29:56;12.00;99.90
36660;DHT22;22654;51.054;3.654;2023-03-31T15:32:26;12.00;99.90
36660;DHT22;22654;51.054;3.654;2023-03-31T15:34:53;12.00;99.90
36660;DHT22;22654;51.054;3.654;2023-03-31T15:37:26;12.00;99.90
36660;DHT22;22654;51.054;3.654;2023-03-31T15:39:56;12.00;99.90
36660;DHT22;22654;51.054;3.654;2023-03-31T15:42:22;12.00;99.90
36660;DHT22;22654;51.054;3.654;2023-03-31T15:47:21;11.90;99.90
36660;DHT22;22654;51.054;3.654;2023-03-31T15:52:23;11.80;99.90
36660;DHT22;22654;51.054;3.654;2023-03-31T15:54:50;11.90;99.90
36660;DHT22;22654;51.054;3.654;2023-03-31T15:57:16;12.00;99.90
36660;DHT22;22654;51.054;3.654;2023-03-31T15:59:50;12.00;99.90
36660;DHT22;22654;51.054;3.654;2023-03-31T16:02:18;11.90;99.90
36660;DHT22;22654;51.054;3.654;2023-03-31T16:04:48;12.00;99.90
36660;DHT22;22654;51.054;3.654;2023-03-31T16:07:17;12.10;99.90
36660;DHT22;22654;51.054;3.654;2023-03-31T16:14:52;12.30;99.90
36660;DHT22;22654;51.054;3.654;2023-03-31T16:17:21;12.40;99.90
36660;DHT22;22654;51.054;3.654;2023-03-31T16:19:54;12.40;99.90
36660;DHT22;22654;51.054;3.654;2023-03-31T16:22:21;12.30;99.90
36660;DHT22;22654;51.054;3.654;2023-03-31T16:24:51;12.30;99.90
36660;DHT22;22654;51.054;3.654;2023-03-31T16:27:17;12.20;99.90
36660;DHT22;22654;51.054;3.654;2023-03-31T16:29:43;12.30;99.90
36660;DHT22;22654;51.054;3.654;2023-03-31T16:32:13;12.10;99.90
36660;DHT22;22654;51.054;3.654;2023-03-31T16:34:55;12.00;99.90
36660;DHT22;22654;51.054;3.654;2023-03-31T16:37:21;11.90;99.90
36660;DHT22;22654;51.054;3.654;2023-03-31T16:39:47;11.90;99.90
36660;DHT22;22654;51.054;3.654;2023-03-31T16:42:13;11.80;99.90
36660;DHT22;22654;51.054;3.654;2023-03-31T16:44:39;11.80;99.90
36660;DHT22;22654;51.054;3.654;2023-03-31T16:47:07;11.80;99.90
36660;DHT22;22654;51.054;3.654;2023-03-31T16:49:33;11.70;99.90
36660;DHT22;22654;51.054;3.654;2023-03-31T16:51:59;11.70;99.90
36660;DHT22;22654;51.054;3.654;2023-03-31T16:54:25;11.70;99.90
36660;DHT22;22654;51.054;3.654;2023-03-31T16:56:51;11.70;99.90
36660;DHT22;22654;51.054;3.654;2023-03-31T16:59:17;11.60;99.90
36660;DHT22;22654;51.054;3.654;2023-03-31T17:01:43;11.60;99.90
36660;DHT22;22654;51.054;3.654;2023-03-31T17:04:10;11.60;99.90
36660;DHT22;22654;51.054;3.654;2023-03-31T17:06:35;11.60;99.90
36660;DHT22;22654;51.054;3.654;2023-03-31T17:09:01;11.60;99.90
36660;DHT22;22654;51.054;3.654;2023-03-31T17:11:30;11.60;99.90
36660;DHT22;22654;51.054;3.654;2023-03-31T17:13:56;11.70;99.90
36660;DHT22;22654;51.054;3.654;2023-03-31T17:16:27;11.60;99.90
36660;DHT22;22654;51.054;3.654;2023-03-31T17:18:53;11.60;99.90
36660;DHT22;22654;51.054;3.654;2023-03-31T17:21:19;11.50;99.90
36660;DHT22;22654;51.054;3.654;2023-03-31T17:23:45;11.40;99.90
36660;DHT22;22654;51.054;3.654;2023-03-31T17:26:11;11.40;99.90
36660;DHT22;22654;51.054;3.654;2023-03-31T17:28:37;11.40;99.90
36660;DHT22;22654;51.054;3.654;2023-03-31T17:31:17;11.30;99.90
36660;DHT22;22654;51.054;3.654;2023-03-31T17:33:43;11.30;99.90
36660;DHT22;22654;51.054;3.654;2023-03-31T17:36:09;11.20;99.90
36660;DHT22;22654;51.054;3.654;2023-03-31T17:38:35;11.20;99.90
36660;DHT22;22654;51.054;3.654;2023-03-31T17:41:02;11.30;99.90
36660;DHT22;22654;51.054;3.654;2023-03-31T17:43:28;11.30;99.90
36660;DHT22;22654;51.054;3.654;2023-03-31T17:46:04;11.40;99.90
36660;DHT22;22654;51.054;3.654;2023-03-31T17:48:30;11.40;99.90
36660;DHT22;22654;51.054;3.654;2023-03-31T17:51:05;11.40;99.90
36660;DHT22;22654;51.054;3.654;2023-03-31T17:53:33;11.50;99.90
36660;DHT22;22654;51.054;3.654;2023-03-31T17:55:59;11.50;99.90
36660;DHT22;22654;51.054;3.654;2023-03-31T17:58:25;11.40;99.90
36660;DHT22;22654;51.054;3.654;2023-03-31T18:00:51;11.50;99.90
36660;DHT22;22654;51.054;3.654;2023-03-31T18:03:17;11.50;99.90
36660;DHT22;22654;51.054;3.654;2023-03-31T18:05:43;11.50;99.90
36660;DHT22;22654;51.054;3.654;2023-03-31T18:08:09;11.50;99.90
36660;DHT22;22654;51.054;3.654;2023-03-31T18:10:36;11.50;99.90
36660;DHT22;22654;51.054;3.654;2023-03-31T18:13:02;11.40;99.90
36660;DHT22;22654;51.054;3.654;2023-03-31T18:15:28;11.40;99.90
36660;DHT22;22654;51.054;3.654;2023-03-31T18:17:54;11.20;99.90
36660;DHT22;22654;51.054;3.654;2023-03-31T18:20:20;11.30;99.90
36660;DHT22;22654;51.054;3.654;2023-03-31T18:22:46;11.20;99.90
36660;DHT22;22654;51.054;3.654;2023-03-31T18:25:12;11.10;99.90
36660;DHT22;22654;51.054;3.654;2023-03-31T18:27:37;11.10;99.90